createdAt,value
2022-08-07T00:00:30.662Z,3.47
2022-08-07T00:02:58.405Z,4.28
2022-08-07T00:05:29.591Z,4.05
2022-08-07T00:07:59.985Z,3.30
2022-08-07T00:10:30.467Z,5.70
2022-08-07T00:13:02.113Z,3.53
2022-08-07T00:15:36.127Z,4.90
2022-08-07T00:18:06.578Z,4.10
2022-08-07T00:20:35.466Z,3.80
2022-08-07T00:23:08.006Z,4.05
2022-08-07T00:25:37.545Z,4.15
2022-08-07T00:28:10.783Z,4.63
2022-08-07T00:30:38.687Z,4.93
2022-08-07T00:33:08.487Z,5.07
2022-08-07T00:35:36.699Z,4.35
2022-08-07T00:38:06.671Z,5.43
2022-08-07T00:40:36.157Z,3.70
2022-08-07T00:43:09.891Z,3.80
2022-08-07T00:45:38.955Z,3.90
2022-08-07T00:48:09.785Z,4.70
2022-08-07T00:50:50.602Z,4.13
2022-08-07T00:53:20.699Z,3.70
2022-08-07T00:56:02.581Z,4.80
2022-08-07T00:58:32.392Z,5.40
2022-08-07T01:01:00.808Z,6.60
2022-08-07T01:03:54.611Z,4.28
2022-08-07T01:06:17.179Z,6.53
2022-08-07T01:08:53.874Z,4.57
2022-08-07T01:12:09.453Z,4.22
2022-08-07T01:14:11.504Z,5.05
2022-08-07T01:16:39.809Z,5.43
2022-08-07T01:19:19.031Z,6.20
2022-08-07T01:21:55.386Z,4.60
2022-08-07T01:24:30.590Z,7.20
2022-08-07T01:27:01.041Z,6.50
2022-08-07T01:29:33.766Z,7.43
2022-08-07T01:32:05.188Z,6.03
2022-08-07T01:34:34.960Z,7.10
2022-08-07T01:37:17.177Z,6.43
2022-08-07T01:39:48.831Z,6.30
2022-08-07T01:42:58.935Z,5.10
2022-08-07T01:45:36.408Z,4.82
2022-08-07T01:48:20.560Z,3.88
2022-08-07T01:50:55.526Z,4.90
2022-08-07T01:54:08.988Z,5.00
2022-08-07T01:56:18.467Z,4.00
2022-08-07T01:58:51.603Z,4.13
2022-08-07T02:01:25.577Z,5.68
2022-08-07T02:04:18.341Z,3.45
2022-08-07T02:06:57.137Z,4.30
2022-08-07T02:09:52.198Z,3.95
2022-08-07T02:15:00.902Z,5.95
2022-08-07T02:17:35.127Z,5.40
2022-08-07T02:20:09.622Z,4.25
2022-08-07T02:22:47.241Z,3.45
2022-08-07T02:25:32.137Z,4.90
2022-08-07T02:28:24.767Z,5.35
2022-08-07T02:30:56.889Z,4.40
2022-08-07T02:33:42.266Z,5.53
2022-08-07T02:36:27.112Z,3.92
2022-08-07T02:39:01.653Z,5.18
2022-08-07T02:41:39.895Z,3.55
2022-08-07T02:44:17.541Z,3.75
2022-08-07T02:46:52.718Z,4.43
2022-08-07T02:49:56.431Z,3.97
2022-08-07T02:52:13.523Z,4.28
2022-08-07T02:54:43.473Z,4.38
2022-08-07T02:57:14.803Z,4.28
2022-08-07T02:59:55.178Z,4.93
2022-08-07T03:02:32.465Z,5.80
2022-08-07T03:05:04.860Z,4.35
2022-08-07T03:07:43.192Z,5.63
2022-08-07T03:10:25.367Z,4.10
2022-08-07T03:12:55.215Z,4.63
2022-08-07T03:15:30.402Z,3.65
2022-08-07T03:18:12.597Z,4.68
2022-08-07T03:20:49.554Z,4.40
2022-08-07T03:23:22.221Z,4.82
2022-08-07T03:26:04.156Z,4.30
2022-08-07T03:28:39.467Z,5.75
2022-08-07T03:31:24.689Z,3.85
2022-08-07T03:34:11.410Z,3.70
2022-08-07T03:36:47.334Z,6.30
2022-08-07T03:39:46.416Z,4.60
2022-08-07T03:42:07.273Z,4.00
2022-08-07T03:44:38.892Z,4.25
2022-08-07T03:47:13.029Z,3.80
2022-08-07T03:49:51.860Z,4.60
2022-08-07T03:52:26.835Z,5.65
2022-08-07T03:55:06.124Z,4.10
2022-08-07T03:58:34.913Z,3.67
2022-08-07T04:00:35.339Z,3.80
2022-08-07T04:03:04.814Z,4.80
2022-08-07T04:05:40.491Z,3.70
2022-08-07T04:08:16.145Z,5.05
2022-08-07T04:10:54.276Z,4.78
2022-08-07T04:14:10.607Z,4.75
2022-08-07T04:16:31.530Z,4.63
2022-08-07T04:19:12.464Z,4.32
2022-08-07T04:21:48.084Z,4.30
2022-08-07T04:24:34.086Z,11.25
2022-08-07T04:27:15.155Z,6.80
2022-08-07T04:30:01.127Z,4.15
2022-08-07T04:32:39.747Z,6.07
2022-08-07T04:35:13.902Z,5.57
2022-08-07T04:38:03.384Z,4.63
2022-08-07T04:40:32.371Z,4.30
2022-08-07T04:43:02.077Z,4.13
2022-08-07T04:45:57.562Z,5.68
2022-08-07T04:48:38.035Z,4.72
2022-08-07T04:51:09.495Z,5.32
2022-08-07T04:54:05.805Z,4.30
2022-08-07T04:58:10.698Z,4.85
2022-08-07T05:00:11.510Z,4.80
2022-08-07T05:02:27.933Z,4.00
2022-08-07T05:05:01.559Z,4.45
2022-08-07T05:07:48.482Z,4.93
2022-08-07T05:10:24.190Z,4.88
2022-08-07T05:14:44.595Z,4.88
2022-08-07T05:15:53.751Z,5.28
2022-08-07T05:18:29.683Z,5.35
2022-08-07T05:21:04.571Z,5.97
2022-08-07T05:23:40.299Z,5.05
2022-08-07T05:26:18.883Z,5.38
2022-08-07T05:28:58.826Z,6.55
2022-08-07T05:31:35.290Z,7.05
2022-08-07T05:34:11.210Z,6.35
2022-08-07T05:36:44.368Z,6.70
2022-08-07T05:40:13.990Z,6.32
2022-08-07T05:42:33.846Z,6.45
2022-08-07T05:45:26.401Z,6.25
2022-08-07T05:48:01.792Z,6.45
2022-08-07T05:50:39.429Z,6.43
2022-08-07T05:54:13.308Z,6.32
2022-08-07T05:56:05.679Z,6.85
2022-08-07T05:58:39.202Z,7.20
2022-08-07T06:01:12.688Z,6.38
2022-08-07T06:03:53.992Z,6.93
2022-08-07T06:06:29.926Z,6.53
2022-08-07T06:09:05.118Z,6.97
2022-08-07T06:11:36.585Z,5.85
2022-08-07T06:14:13.337Z,6.68
2022-08-07T06:16:56.158Z,6.18
2022-08-07T06:19:52.334Z,5.70
2022-08-07T06:22:23.438Z,5.53
2022-08-07T06:25:01.380Z,4.75
2022-08-07T06:27:59.657Z,4.40
2022-08-07T06:30:23.986Z,3.80
2022-08-07T06:33:03.736Z,3.67
2022-08-07T06:35:39.160Z,4.18
2022-08-07T06:38:20.454Z,4.30
2022-08-07T06:40:54.092Z,3.80
2022-08-07T06:43:25.627Z,3.40
2022-08-07T06:46:12.406Z,3.75
2022-08-07T06:48:42.026Z,3.53
2022-08-07T06:51:31.310Z,3.95
2022-08-07T06:55:29.815Z,3.47
2022-08-07T06:56:57.864Z,4.03
2022-08-07T07:00:11.760Z,3.90
2022-08-07T07:02:54.003Z,3.42
2022-08-07T07:05:15.181Z,4.07
2022-08-07T07:08:06.565Z,2.92
2022-08-07T07:10:37.473Z,3.35
2022-08-07T07:13:13.114Z,3.95
2022-08-07T07:15:45.493Z,2.97
2022-08-07T07:18:47.200Z,2.88
2022-08-07T07:21:19.400Z,3.50
2022-08-07T07:24:09.998Z,2.75
2022-08-07T07:26:38.266Z,3.53
2022-08-07T07:29:38.955Z,3.28
2022-08-07T07:32:04.559Z,2.42
2022-08-07T07:34:34.954Z,2.05
2022-08-07T07:37:14.809Z,3.10
2022-08-07T07:39:56.653Z,2.95
2022-08-07T07:42:33.331Z,2.88
2022-08-07T07:45:06.803Z,4.55
2022-08-07T07:47:51.945Z,3.08
2022-08-07T07:50:35.483Z,3.15
2022-08-07T07:53:20.568Z,2.67
2022-08-07T07:56:00.545Z,3.20
2022-08-07T07:58:40.606Z,2.15
2022-08-07T08:02:03.856Z,2.28
2022-08-07T08:04:09.551Z,2.25
2022-08-07T08:06:50.681Z,2.03
2022-08-07T08:09:23.150Z,2.47
2022-08-07T08:12:02.273Z,2.08
2022-08-07T08:14:32.336Z,3.25
2022-08-07T08:17:56.011Z,3.65
2022-08-07T08:20:19.385Z,2.63
2022-08-07T08:23:08.511Z,3.17
2022-08-07T08:26:06.923Z,2.63
2022-08-07T08:28:44.745Z,2.03
2022-08-07T08:31:30.411Z,2.33
2022-08-07T08:34:12.420Z,4.15
2022-08-07T08:36:49.304Z,1.98
2022-08-07T08:39:39.407Z,2.22
2022-08-07T08:42:22.938Z,2.15
2022-08-07T08:45:04.655Z,2.53
2022-08-07T08:47:51.840Z,1.80
2022-08-07T08:50:34.704Z,1.80
2022-08-07T08:53:16.554Z,1.20
2022-08-07T08:55:55.097Z,1.92
2022-08-07T08:58:35.209Z,2.38
2022-08-07T09:01:15.080Z,2.22
2022-08-07T09:03:55.192Z,1.73
2022-08-07T09:06:36.563Z,2.33
2022-08-07T09:09:13.551Z,1.73
2022-08-07T09:12:02.857Z,1.08
2022-08-07T09:14:58.893Z,1.00
2022-08-07T09:17:59.698Z,1.42
2022-08-07T09:20:35.341Z,2.30
2022-08-07T09:24:28.416Z,2.55
2022-08-07T09:26:20.847Z,1.77
2022-08-07T09:30:05.473Z,1.75
2022-08-07T09:31:52.253Z,1.98
2022-08-07T09:34:27.337Z,1.75
2022-08-07T09:37:03.110Z,4.03
2022-08-07T09:39:54.833Z,2.92
2022-08-07T09:42:45.626Z,1.98
2022-08-07T09:47:49.710Z,1.25
2022-08-07T09:48:22.584Z,2.55
2022-08-07T09:51:25.905Z,7.60
2022-08-07T09:54:02.846Z,1.98
2022-08-07T09:56:57.128Z,3.47
2022-08-07T09:59:46.493Z,8.27
2022-08-07T10:02:55.792Z,3.53
2022-08-07T10:06:19.474Z,1.75
2022-08-07T10:09:15.212Z,3.42
2022-08-07T10:12:10.503Z,2.72
2022-08-07T10:15:24.805Z,1.57
2022-08-07T10:18:26.640Z,2.00
2022-08-07T10:21:20.041Z,1.33
2022-08-07T10:24:10.438Z,1.05
2022-08-07T10:26:58.922Z,2.03
2022-08-07T10:29:58.539Z,2.60
2022-08-07T10:32:53.261Z,1.40
2022-08-07T10:35:55.325Z,1.63
2022-08-07T10:38:46.427Z,3.17
2022-08-07T10:41:46.495Z,1.05
2022-08-07T10:44:33.801Z,2.88
2022-08-07T10:47:27.092Z,1.33
2022-08-07T10:50:15.233Z,1.65
2022-08-07T10:52:54.232Z,1.52
2022-08-07T10:55:37.882Z,1.85
2022-08-07T10:58:18.783Z,1.55
2022-08-07T11:01:17.186Z,1.92
2022-08-07T11:03:52.947Z,1.17
2022-08-07T11:06:40.178Z,1.48
2022-08-07T11:10:06.987Z,2.67
2022-08-07T11:12:07.522Z,2.05
2022-08-07T11:14:43.718Z,1.83
2022-08-07T11:17:43.507Z,2.58
2022-08-07T11:20:19.571Z,2.53
2022-08-07T11:23:01.400Z,1.65
2022-08-07T11:25:42.571Z,1.95
2022-08-07T11:28:22.234Z,1.73
2022-08-07T11:30:57.856Z,1.88
2022-08-07T11:33:58.345Z,3.33
2022-08-07T11:36:39.381Z,1.88
2022-08-07T11:39:19.291Z,1.67
2022-08-07T11:42:01.991Z,2.13
2022-08-07T11:44:52.773Z,2.08
2022-08-07T11:47:56.631Z,1.65
2022-08-07T11:50:57.723Z,2.67
2022-08-07T11:53:37.979Z,1.95
2022-08-07T11:56:28.279Z,1.42
2022-08-07T11:59:22.159Z,1.23
2022-08-07T12:02:03.905Z,1.07
2022-08-07T12:05:01.278Z,2.80
2022-08-07T12:07:40.133Z,2.47
2022-08-07T12:10:16.481Z,2.47
2022-08-07T12:12:52.443Z,1.98
2022-08-07T12:15:35.700Z,2.03
2022-08-07T12:18:22.313Z,1.67
2022-08-07T12:21:11.348Z,1.75
2022-08-07T12:24:07.142Z,2.58
2022-08-07T12:26:47.030Z,2.75
2022-08-07T12:29:20.492Z,2.13
2022-08-07T12:32:15.330Z,1.65
2022-08-07T12:34:49.646Z,2.80
2022-08-07T12:37:28.289Z,2.50
2022-08-07T12:40:46.892Z,2.40
2022-08-07T12:43:10.453Z,2.60
2022-08-07T12:45:52.355Z,2.00
2022-08-07T12:51:19.528Z,1.58
2022-08-07T12:59:30.439Z,1.58
2022-08-07T13:02:33.074Z,2.15
2022-08-07T13:05:15.169Z,2.30
2022-08-07T13:08:30.706Z,0.93
2022-08-07T13:11:10.293Z,2.42
2022-08-07T13:13:57.526Z,1.48
2022-08-07T13:16:36.676Z,2.25
2022-08-07T13:19:45.984Z,2.60
2022-08-07T13:22:26.890Z,2.17
2022-08-07T13:25:06.057Z,2.38
2022-08-07T13:28:11.389Z,1.75
2022-08-07T13:30:40.145Z,1.20
2022-08-07T13:34:30.629Z,1.48
2022-08-07T13:36:18.068Z,2.33
2022-08-07T13:38:50.612Z,1.60
2022-08-07T13:41:33.154Z,1.67
2022-08-07T13:44:05.154Z,1.98
2022-08-07T13:46:49.457Z,2.00
2022-08-07T13:50:35.743Z,3.15
2022-08-07T13:52:32.650Z,1.95
2022-08-07T13:54:58.241Z,1.58
2022-08-07T13:57:37.686Z,2.13
2022-08-07T14:00:26.159Z,1.52
2022-08-07T14:02:58.949Z,1.55
2022-08-07T14:05:28.955Z,2.28
2022-08-07T14:08:08.650Z,1.65
2022-08-07T14:10:41.709Z,1.42
2022-08-07T14:13:14.274Z,2.00
2022-08-07T14:15:50.824Z,1.60
2022-08-07T14:18:28.797Z,2.03
2022-08-07T14:21:07.096Z,1.67
2022-08-07T14:24:00.566Z,1.63
2022-08-07T14:26:33.334Z,1.70
2022-08-07T14:30:05.757Z,1.92
2022-08-07T14:31:57.670Z,1.88
2022-08-07T14:37:38.801Z,2.20
2022-08-07T14:40:17.299Z,1.90
2022-08-07T14:43:55.924Z,1.98
2022-08-07T14:48:38.137Z,1.35
2022-08-07T14:51:16.027Z,2.42
2022-08-07T14:54:06.623Z,1.73
2022-08-07T14:56:39.958Z,1.52
2022-08-07T14:59:13.654Z,1.90
2022-08-07T15:02:31.777Z,3.53
2022-08-07T15:05:01.942Z,2.33
2022-08-07T15:10:26.637Z,2.25
2022-08-07T15:12:59.339Z,3.00
2022-08-07T15:15:38.606Z,2.10
2022-08-07T15:21:03.943Z,2.22
2022-08-07T15:25:02.348Z,2.13
2022-08-07T15:26:37.514Z,1.42
2022-08-07T15:30:04.692Z,1.50
2022-08-07T15:32:04.961Z,2.15
2022-08-07T15:34:37.749Z,2.20
2022-08-07T15:40:20.514Z,1.85
2022-08-07T15:43:53.175Z,1.80
2022-08-07T15:54:27.349Z,2.40
2022-08-07T15:57:00.607Z,1.98
2022-08-07T15:59:39.790Z,2.42
2022-08-07T16:02:23.824Z,2.05
2022-08-07T16:04:56.984Z,2.45
2022-08-07T16:08:30.817Z,1.90
2022-08-07T16:10:19.760Z,2.83
2022-08-07T16:13:17.969Z,2.92
2022-08-07T16:16:06.549Z,2.67
2022-08-07T16:19:04.562Z,3.47
2022-08-07T16:22:06.620Z,2.42
2022-08-07T16:24:40.755Z,5.32
2022-08-07T16:27:40.253Z,3.28
2022-08-07T16:30:29.717Z,2.20
2022-08-07T16:34:01.403Z,2.33
2022-08-07T16:36:31.282Z,2.58
2022-08-07T16:39:33.594Z,2.10
2022-08-07T16:42:23.397Z,2.97
2022-08-07T16:45:15.217Z,2.92
2022-08-07T16:48:53.696Z,2.60
2022-08-07T16:51:54.208Z,2.75
2022-08-07T16:54:54.165Z,2.83
2022-08-07T16:58:02.095Z,2.75
2022-08-07T17:00:30.051Z,3.00
2022-08-07T17:03:19.494Z,2.60
2022-08-07T17:06:28.909Z,5.63
2022-08-07T17:09:54.822Z,4.28
2022-08-07T17:12:33.766Z,2.58
2022-08-07T17:15:04.932Z,2.92
2022-08-07T17:17:46.499Z,2.92
2022-08-07T17:20:30.967Z,6.45
2022-08-07T17:23:08.836Z,3.13
2022-08-07T17:25:52.572Z,3.45
2022-08-07T17:28:31.114Z,2.25
2022-08-07T17:31:16.637Z,2.45
2022-08-07T17:34:32.574Z,5.90
2022-08-07T17:36:58.388Z,6.28
2022-08-07T17:39:58.147Z,4.50
2022-08-07T17:42:58.523Z,4.28
2022-08-07T17:45:40.863Z,2.55
2022-08-07T17:48:16.023Z,3.05
2022-08-07T17:51:05.496Z,3.40
2022-08-07T17:54:00.520Z,2.95
2022-08-07T17:56:33.547Z,3.35
2022-08-07T17:59:17.078Z,3.57
2022-08-07T18:01:57.294Z,3.17
2022-08-07T18:04:34.379Z,3.83
2022-08-07T18:07:20.146Z,2.83
2022-08-07T18:10:07.442Z,2.70
2022-08-07T18:12:56.378Z,3.55
2022-08-07T18:15:32.517Z,3.30
2022-08-07T18:18:46.012Z,3.92
2022-08-07T18:21:30.678Z,3.88
2022-08-07T18:24:02.136Z,3.10
2022-08-07T18:27:09.584Z,2.92
2022-08-07T18:30:07.865Z,3.10
2022-08-07T18:33:12.220Z,2.85
2022-08-07T18:35:53.722Z,3.03
2022-08-07T18:38:57.834Z,3.83
2022-08-07T18:41:44.969Z,2.47
2022-08-07T18:44:30.927Z,3.22
2022-08-07T18:47:11.239Z,4.45
2022-08-07T18:50:33.455Z,3.72
2022-08-07T18:53:12.518Z,3.13
2022-08-07T18:55:59.608Z,3.78
2022-08-07T18:58:38.752Z,3.10
2022-08-07T19:02:31.893Z,3.50
2022-08-07T19:04:38.922Z,3.08
2022-08-07T19:07:34.934Z,3.08
2022-08-07T19:10:09.993Z,3.40
2022-08-07T19:12:57.660Z,2.90
2022-08-07T19:16:05.428Z,4.25
2022-08-07T19:18:44.992Z,3.47
2022-08-07T19:21:51.116Z,3.65
2022-08-07T19:24:11.070Z,3.97
2022-08-07T19:28:57.819Z,3.33
2022-08-07T19:30:57.727Z,3.53
2022-08-07T19:32:45.569Z,3.17
2022-08-07T19:35:22.566Z,3.17
2022-08-07T19:37:57.635Z,3.20
2022-08-07T19:40:31.370Z,3.70
2022-08-07T19:43:12.755Z,2.95
2022-08-07T19:46:07.246Z,3.10
2022-08-07T19:48:43.818Z,2.80
2022-08-07T19:51:20.626Z,3.03
2022-08-07T19:54:31.281Z,4.28
2022-08-07T19:58:02.349Z,3.47
2022-08-07T19:59:53.280Z,2.97
2022-08-07T20:02:29.886Z,3.47
2022-08-07T20:05:00.258Z,3.80
2022-08-07T20:07:47.855Z,3.08
2022-08-07T20:10:36.711Z,2.72
2022-08-07T20:13:15.882Z,3.65
2022-08-07T20:15:54.057Z,5.30
2022-08-07T20:18:32.794Z,3.60
2022-08-07T20:21:21.363Z,3.45
2022-08-07T20:23:57.882Z,3.85
2022-08-07T20:26:38.663Z,4.40
2022-08-07T20:29:46.701Z,4.10
2022-08-07T20:32:05.179Z,4.15
2022-08-07T20:34:50.191Z,4.93
2022-08-07T20:37:24.098Z,4.35
2022-08-07T20:40:02.678Z,2.70
2022-08-07T20:42:33.198Z,3.08
2022-08-07T20:45:01.968Z,3.67
2022-08-07T20:47:56.061Z,4.13
2022-08-07T20:50:24.313Z,3.33
2022-08-07T20:52:52.856Z,5.45
2022-08-07T20:55:23.632Z,3.85
2022-08-07T20:58:03.501Z,3.93
2022-08-07T21:00:43.497Z,4.20
2022-08-07T21:03:16.521Z,4.18
2022-08-07T21:05:56.363Z,3.33
2022-08-07T21:08:37.696Z,3.70
2022-08-07T21:11:12.249Z,4.32
2022-08-07T21:14:29.794Z,4.82
2022-08-07T21:16:56.788Z,5.95
2022-08-07T21:19:51.055Z,4.35
2022-08-07T21:22:28.413Z,5.07
2022-08-07T21:25:12.387Z,6.40
2022-08-07T21:28:06.407Z,5.15
2022-08-07T21:30:49.879Z,5.55
2022-08-07T21:33:22.784Z,5.35
2022-08-07T21:36:04.245Z,5.30
2022-08-07T21:38:55.327Z,5.57
2022-08-07T21:41:37.853Z,6.35
2022-08-07T21:44:14.616Z,5.38
2022-08-07T21:47:00.886Z,4.72
2022-08-07T21:50:00.887Z,5.68
2022-08-07T21:52:33.333Z,5.07
2022-08-07T21:55:10.993Z,5.28
2022-08-07T21:57:52.628Z,5.53
2022-08-07T22:00:25.192Z,5.00
2022-08-07T22:03:07.428Z,5.72
2022-08-07T22:05:48.297Z,4.72
2022-08-07T22:08:19.785Z,4.72
2022-08-07T22:10:51.689Z,4.50
2022-08-07T22:13:24.495Z,4.43
2022-08-07T22:16:43.461Z,5.30
2022-08-07T22:22:02.679Z,4.25
2022-08-07T22:24:35.226Z,3.90
2022-08-07T22:27:13.006Z,4.72
2022-08-07T22:29:48.473Z,5.18
2022-08-07T22:32:27.631Z,4.85
2022-08-07T22:34:59.224Z,4.15
2022-08-07T22:38:03.431Z,3.95
2022-08-07T22:40:28.056Z,5.03
2022-08-07T22:43:00.374Z,4.78
2022-08-07T22:46:21.220Z,4.82
2022-08-07T22:49:01.466Z,4.60
2022-08-07T22:51:49.121Z,4.20
2022-08-07T22:54:38.367Z,3.83
2022-08-07T22:57:17.116Z,4.05
2022-08-07T23:00:01.456Z,4.07
2022-08-07T23:02:38.651Z,4.10
2022-08-07T23:06:06.920Z,7.78
2022-08-07T23:08:46.213Z,4.80
2022-08-07T23:11:41.117Z,4.43
2022-08-07T23:14:25.145Z,4.20
2022-08-07T23:17:18.035Z,4.40
2022-08-07T23:20:21.021Z,5.15
2022-08-07T23:24:07.066Z,5.85
2022-08-07T23:26:38.591Z,4.38
2022-08-07T23:30:35.773Z,4.05
2022-08-07T23:34:21.947Z,3.90
2022-08-07T23:35:25.715Z,4.93
2022-08-07T23:38:36.856Z,4.80
2022-08-07T23:42:01.567Z,3.83
2022-08-07T23:44:41.579Z,4.68
2022-08-07T23:47:48.010Z,4.35
2022-08-07T23:50:30.302Z,4.35
2022-08-07T23:53:16.576Z,4.72
2022-08-07T23:55:55.593Z,4.18
2022-08-07T23:58:37.342Z,5.53
